sensor_id;sensor_type;location;lat;lon;timestamp;P1;durP1;ratioP1;P2;durP2;ratioP2
23288;SDS011;11813;50.834;4.280;2022-12-18T00:01:05;49.77;;;25.57;;
23288;SDS011;11813;50.834;4.280;2022-12-18T00:03:41;49.23;;;25.43;;
23288;SDS011;11813;50.834;4.280;2022-12-18T00:06:06;49.07;;;25.40;;
23288;SDS011;11813;50.834;4.280;2022-12-18T00:08:33;53.93;;;24.97;;
23288;SDS011;11813;50.834;4.280;2022-12-18T00:11:05;57.27;;;25.30;;
23288;SDS011;11813;50.834;4.280;2022-12-18T00:13:32;45.73;;;23.80;;
23288;SDS011;11813;50.834;4.280;2022-12-18T00:16:02;45.80;;;23.77;;
23288;SDS011;11813;50.834;4.280;2022-12-18T00:18:32;43.70;;;23.17;;
23288;SDS011;11813;50.834;4.280;2022-12-18T00:20:59;45.37;;;24.57;;
23288;SDS011;11813;50.834;4.280;2022-12-18T00:23:26;50.83;;;25.00;;
23288;SDS011;11813;50.834;4.280;2022-12-18T00:25:52;50.97;;;25.83;;
23288;SDS011;11813;50.834;4.280;2022-12-18T00:28:18;45.83;;;24.87;;
23288;SDS011;11813;50.834;4.280;2022-12-18T00:30:44;45.10;;;24.93;;
23288;SDS011;11813;50.834;4.280;2022-12-18T00:33:09;52.60;;;24.73;;
23288;SDS011;11813;50.834;4.280;2022-12-18T00:35:35;33.47;;;18.20;;
23288;SDS011;11813;50.834;4.280;2022-12-18T00:38:00;42.83;;;21.10;;
23288;SDS011;11813;50.834;4.280;2022-12-18T00:40:26;37.10;;;21.20;;
23288;SDS011;11813;50.834;4.280;2022-12-18T00:42:52;39.90;;;20.17;;
23288;SDS011;11813;50.834;4.280;2022-12-18T00:45:24;44.93;;;21.97;;
23288;SDS011;11813;50.834;4.280;2022-12-18T00:47:54;37.03;;;19.67;;
23288;SDS011;11813;50.834;4.280;2022-12-18T00:50:20;35.80;;;19.43;;
23288;SDS011;11813;50.834;4.280;2022-12-18T00:52:46;39.83;;;20.70;;
23288;SDS011;11813;50.834;4.280;2022-12-18T00:55:12;37.10;;;19.07;;
23288;SDS011;11813;50.834;4.280;2022-12-18T00:57:39;37.20;;;18.80;;
23288;SDS011;11813;50.834;4.280;2022-12-18T01:00:07;37.50;;;18.60;;
23288;SDS011;11813;50.834;4.280;2022-12-18T01:02:34;33.07;;;18.13;;
23288;SDS011;11813;50.834;4.280;2022-12-18T01:05:00;34.90;;;18.37;;
23288;SDS011;11813;50.834;4.280;2022-12-18T01:07:26;36.83;;;18.90;;
23288;SDS011;11813;50.834;4.280;2022-12-18T01:09:51;36.60;;;17.67;;
23288;SDS011;11813;50.834;4.280;2022-12-18T01:12:17;37.83;;;17.47;;
23288;SDS011;11813;50.834;4.280;2022-12-18T01:14:43;38.20;;;19.60;;
23288;SDS011;11813;50.834;4.280;2022-12-18T01:17:08;35.67;;;18.47;;
23288;SDS011;11813;50.834;4.280;2022-12-18T01:19:34;33.60;;;18.10;;
23288;SDS011;11813;50.834;4.280;2022-12-18T01:22:00;31.37;;;16.47;;
23288;SDS011;11813;50.834;4.280;2022-12-18T01:24:25;26.80;;;16.57;;
23288;SDS011;11813;50.834;4.280;2022-12-18T01:26:51;31.73;;;17.27;;
23288;SDS011;11813;50.834;4.280;2022-12-18T01:29:16;36.20;;;17.67;;
23288;SDS011;11813;50.834;4.280;2022-12-18T01:31:42;30.37;;;17.53;;
23288;SDS011;11813;50.834;4.280;2022-12-18T01:34:08;33.37;;;17.10;;
23288;SDS011;11813;50.834;4.280;2022-12-18T01:36:35;31.83;;;16.13;;
23288;SDS011;11813;50.834;4.280;2022-12-18T01:39:05;31.27;;;16.20;;
23288;SDS011;11813;50.834;4.280;2022-12-18T01:41:32;37.80;;;17.87;;
23288;SDS011;11813;50.834;4.280;2022-12-18T01:50:06;29.20;;;16.67;;
23288;SDS011;11813;50.834;4.280;2022-12-18T01:52:32;35.37;;;17.47;;
23288;SDS011;11813;50.834;4.280;2022-12-18T01:54:59;33.23;;;17.70;;
23288;SDS011;11813;50.834;4.280;2022-12-18T01:57:26;34.37;;;17.63;;
23288;SDS011;11813;50.834;4.280;2022-12-18T01:59:53;34.73;;;19.00;;
23288;SDS011;11813;50.834;4.280;2022-12-18T02:02:25;33.50;;;18.43;;
23288;SDS011;11813;50.834;4.280;2022-12-18T02:04:53;35.87;;;19.50;;
23288;SDS011;11813;50.834;4.280;2022-12-18T02:09:50;33.70;;;18.23;;
23288;SDS011;11813;50.834;4.280;2022-12-18T02:12:25;32.97;;;18.97;;
23288;SDS011;11813;50.834;4.280;2022-12-18T02:18:07;35.67;;;18.60;;
23288;SDS011;11813;50.834;4.280;2022-12-18T02:20:52;38.27;;;19.40;;
23288;SDS011;11813;50.834;4.280;2022-12-18T02:29:08;32.30;;;17.37;;
23288;SDS011;11813;50.834;4.280;2022-12-18T02:31:49;33.30;;;17.87;;
23288;SDS011;11813;50.834;4.280;2022-12-18T02:34:18;34.93;;;18.33;;
23288;SDS011;11813;50.834;4.280;2022-12-18T02:36:46;28.10;;;17.13;;
23288;SDS011;11813;50.834;4.280;2022-12-18T02:39:14;37.43;;;18.50;;
23288;SDS011;11813;50.834;4.280;2022-12-18T02:41:40;38.77;;;19.40;;
23288;SDS011;11813;50.834;4.280;2022-12-18T02:44:07;34.17;;;18.53;;
23288;SDS011;11813;50.834;4.280;2022-12-18T02:46:38;35.07;;;19.27;;
23288;SDS011;11813;50.834;4.280;2022-12-18T02:49:20;35.47;;;17.83;;
23288;SDS011;11813;50.834;4.280;2022-12-18T02:51:53;32.17;;;17.03;;
23288;SDS011;11813;50.834;4.280;2022-12-18T02:54:44;34.77;;;17.00;;
23288;SDS011;11813;50.834;4.280;2022-12-18T02:57:39;34.83;;;17.87;;
23288;SDS011;11813;50.834;4.280;2022-12-18T03:00:28;31.93;;;16.50;;
23288;SDS011;11813;50.834;4.280;2022-12-18T03:03:11;31.00;;;16.17;;
23288;SDS011;11813;50.834;4.280;2022-12-18T03:05:47;28.60;;;15.73;;
23288;SDS011;11813;50.834;4.280;2022-12-18T03:08:24;32.40;;;16.90;;
23288;SDS011;11813;50.834;4.280;2022-12-18T03:13:31;29.50;;;16.87;;
23288;SDS011;11813;50.834;4.280;2022-12-18T03:16:00;31.30;;;16.57;;
23288;SDS011;11813;50.834;4.280;2022-12-18T03:18:30;32.63;;;16.83;;
23288;SDS011;11813;50.834;4.280;2022-12-18T03:21:02;28.00;;;14.93;;
23288;SDS011;11813;50.834;4.280;2022-12-18T03:23:33;28.57;;;14.57;;
23288;SDS011;11813;50.834;4.280;2022-12-18T03:26:05;29.13;;;15.17;;
23288;SDS011;11813;50.834;4.280;2022-12-18T03:28:35;28.17;;;14.83;;
23288;SDS011;11813;50.834;4.280;2022-12-18T03:31:04;29.03;;;14.83;;
23288;SDS011;11813;50.834;4.280;2022-12-18T03:33:36;25.70;;;14.63;;
23288;SDS011;11813;50.834;4.280;2022-12-18T03:36:07;25.40;;;13.70;;
23288;SDS011;11813;50.834;4.280;2022-12-18T03:38:32;25.70;;;13.93;;
23288;SDS011;11813;50.834;4.280;2022-12-18T03:43:31;25.50;;;13.07;;
23288;SDS011;11813;50.834;4.280;2022-12-18T03:46:29;25.10;;;13.70;;
23288;SDS011;11813;50.834;4.280;2022-12-18T03:49:11;25.73;;;12.80;;
23288;SDS011;11813;50.834;4.280;2022-12-18T03:51:43;28.70;;;12.73;;
23288;SDS011;11813;50.834;4.280;2022-12-18T03:54:18;24.40;;;12.63;;
23288;SDS011;11813;50.834;4.280;2022-12-18T03:56:49;22.47;;;11.83;;
23288;SDS011;11813;50.834;4.280;2022-12-18T03:59:21;25.20;;;12.43;;
23288;SDS011;11813;50.834;4.280;2022-12-18T04:01:49;19.63;;;11.37;;
23288;SDS011;11813;50.834;4.280;2022-12-18T04:04:17;22.13;;;12.10;;
23288;SDS011;11813;50.834;4.280;2022-12-18T04:06:45;21.83;;;12.47;;
23288;SDS011;11813;50.834;4.280;2022-12-18T04:09:13;23.73;;;11.80;;
23288;SDS011;11813;50.834;4.280;2022-12-18T04:11:39;18.70;;;11.57;;
23288;SDS011;11813;50.834;4.280;2022-12-18T04:14:07;23.30;;;11.30;;
23288;SDS011;11813;50.834;4.280;2022-12-18T04:16:32;22.00;;;11.07;;
23288;SDS011;11813;50.834;4.280;2022-12-18T04:18:58;22.40;;;10.47;;
23288;SDS011;11813;50.834;4.280;2022-12-18T04:21:24;20.13;;;10.50;;
23288;SDS011;11813;50.834;4.280;2022-12-18T04:23:49;22.63;;;10.63;;
23288;SDS011;11813;50.834;4.280;2022-12-18T04:26:15;22.33;;;11.50;;
23288;SDS011;11813;50.834;4.280;2022-12-18T04:28:40;24.70;;;11.73;;
23288;SDS011;11813;50.834;4.280;2022-12-18T04:31:06;19.43;;;10.00;;
23288;SDS011;11813;50.834;4.280;2022-12-18T04:33:31;19.10;;;10.97;;
23288;SDS011;11813;50.834;4.280;2022-12-18T04:35:57;19.37;;;10.57;;
23288;SDS011;11813;50.834;4.280;2022-12-18T04:38:23;18.80;;;10.73;;
23288;SDS011;11813;50.834;4.280;2022-12-18T04:40:48;19.50;;;10.27;;
23288;SDS011;11813;50.834;4.280;2022-12-18T04:43:14;18.80;;;10.70;;
23288;SDS011;11813;50.834;4.280;2022-12-18T04:45:39;20.87;;;10.60;;
23288;SDS011;11813;50.834;4.280;2022-12-18T04:48:05;18.47;;;10.73;;
23288;SDS011;11813;50.834;4.280;2022-12-18T04:50:30;17.67;;;9.97;;
23288;SDS011;11813;50.834;4.280;2022-12-18T04:52:56;20.63;;;11.50;;
23288;SDS011;11813;50.834;4.280;2022-12-18T04:55:22;24.67;;;11.33;;
23288;SDS011;11813;50.834;4.280;2022-12-18T04:57:49;18.67;;;11.43;;
23288;SDS011;11813;50.834;4.280;2022-12-18T05:00:15;21.87;;;11.00;;
23288;SDS011;11813;50.834;4.280;2022-12-18T05:02:41;23.40;;;11.87;;
23288;SDS011;11813;50.834;4.280;2022-12-18T05:05:06;20.97;;;12.33;;
23288;SDS011;11813;50.834;4.280;2022-12-18T05:07:32;24.17;;;11.17;;
23288;SDS011;11813;50.834;4.280;2022-12-18T05:09:58;21.20;;;11.27;;
23288;SDS011;11813;50.834;4.280;2022-12-18T05:12:24;25.53;;;11.43;;
23288;SDS011;11813;50.834;4.280;2022-12-18T05:14:49;23.10;;;12.30;;
23288;SDS011;11813;50.834;4.280;2022-12-18T05:17:15;19.60;;;10.87;;
23288;SDS011;11813;50.834;4.280;2022-12-18T05:19:40;20.53;;;11.57;;
23288;SDS011;11813;50.834;4.280;2022-12-18T05:22:06;23.33;;;11.70;;
23288;SDS011;11813;50.834;4.280;2022-12-18T05:24:31;22.80;;;11.53;;
23288;SDS011;11813;50.834;4.280;2022-12-18T05:26:57;23.67;;;12.43;;
23288;SDS011;11813;50.834;4.280;2022-12-18T05:29:23;20.00;;;11.00;;
23288;SDS011;11813;50.834;4.280;2022-12-18T05:31:48;21.03;;;11.57;;
23288;SDS011;11813;50.834;4.280;2022-12-18T05:34:14;22.03;;;11.13;;
23288;SDS011;11813;50.834;4.280;2022-12-18T05:36:39;25.23;;;11.77;;
23288;SDS011;11813;50.834;4.280;2022-12-18T05:39:05;20.37;;;11.20;;
23288;SDS011;11813;50.834;4.280;2022-12-18T05:41:31;22.53;;;11.10;;
23288;SDS011;11813;50.834;4.280;2022-12-18T05:43:57;23.03;;;12.43;;
23288;SDS011;11813;50.834;4.280;2022-12-18T05:46:23;21.60;;;11.23;;
23288;SDS011;11813;50.834;4.280;2022-12-18T05:48:49;23.97;;;12.17;;
23288;SDS011;11813;50.834;4.280;2022-12-18T05:51:16;22.27;;;12.17;;
23288;SDS011;11813;50.834;4.280;2022-12-18T05:53:43;28.63;;;12.47;;
23288;SDS011;11813;50.834;4.280;2022-12-18T05:56:13;25.80;;;12.63;;
23288;SDS011;11813;50.834;4.280;2022-12-18T05:58:41;28.73;;;13.87;;
23288;SDS011;11813;50.834;4.280;2022-12-18T06:01:12;21.70;;;12.97;;
23288;SDS011;11813;50.834;4.280;2022-12-18T06:03:42;23.27;;;12.53;;
23288;SDS011;11813;50.834;4.280;2022-12-18T06:06:18;22.80;;;12.73;;
23288;SDS011;11813;50.834;4.280;2022-12-18T06:08:47;23.33;;;11.90;;
23288;SDS011;11813;50.834;4.280;2022-12-18T06:11:15;22.37;;;11.50;;
23288;SDS011;11813;50.834;4.280;2022-12-18T06:13:43;23.00;;;12.93;;
23288;SDS011;11813;50.834;4.280;2022-12-18T06:16:08;19.20;;;11.27;;
23288;SDS011;11813;50.834;4.280;2022-12-18T06:18:34;21.70;;;12.30;;
23288;SDS011;11813;50.834;4.280;2022-12-18T06:21:00;21.93;;;12.63;;
23288;SDS011;11813;50.834;4.280;2022-12-18T06:23:25;20.87;;;12.17;;
23288;SDS011;11813;50.834;4.280;2022-12-18T06:25:51;21.07;;;12.27;;
23288;SDS011;11813;50.834;4.280;2022-12-18T06:28:17;19.70;;;12.27;;
23288;SDS011;11813;50.834;4.280;2022-12-18T06:30:43;20.90;;;11.47;;
23288;SDS011;11813;50.834;4.280;2022-12-18T06:33:10;20.50;;;11.27;;
23288;SDS011;11813;50.834;4.280;2022-12-18T06:35:35;18.93;;;10.93;;
23288;SDS011;11813;50.834;4.280;2022-12-18T06:38:02;22.27;;;11.47;;
23288;SDS011;11813;50.834;4.280;2022-12-18T06:40:28;21.30;;;10.97;;
23288;SDS011;11813;50.834;4.280;2022-12-18T06:42:54;17.47;;;9.80;;
23288;SDS011;11813;50.834;4.280;2022-12-18T06:45:19;21.93;;;11.00;;
23288;SDS011;11813;50.834;4.280;2022-12-18T06:47:45;18.53;;;10.87;;
23288;SDS011;11813;50.834;4.280;2022-12-18T06:50:11;22.03;;;11.30;;
23288;SDS011;11813;50.834;4.280;2022-12-18T06:52:37;19.30;;;10.97;;
23288;SDS011;11813;50.834;4.280;2022-12-18T06:55:04;22.00;;;10.97;;
23288;SDS011;11813;50.834;4.280;2022-12-18T06:57:30;18.30;;;10.83;;
23288;SDS011;11813;50.834;4.280;2022-12-18T06:59:56;17.40;;;10.47;;
23288;SDS011;11813;50.834;4.280;2022-12-18T07:02:21;17.07;;;9.57;;
23288;SDS011;11813;50.834;4.280;2022-12-18T07:04:50;18.73;;;9.90;;
23288;SDS011;11813;50.834;4.280;2022-12-18T07:07:15;19.77;;;10.40;;
23288;SDS011;11813;50.834;4.280;2022-12-18T07:09:41;20.93;;;9.97;;
23288;SDS011;11813;50.834;4.280;2022-12-18T07:12:07;19.97;;;10.07;;
23288;SDS011;11813;50.834;4.280;2022-12-18T07:14:33;17.50;;;10.40;;
23288;SDS011;11813;50.834;4.280;2022-12-18T07:16:58;20.07;;;10.87;;
23288;SDS011;11813;50.834;4.280;2022-12-18T07:19:24;18.23;;;10.47;;
23288;SDS011;11813;50.834;4.280;2022-12-18T07:21:50;13.63;;;8.77;;
23288;SDS011;11813;50.834;4.280;2022-12-18T07:24:16;17.67;;;9.30;;
23288;SDS011;11813;50.834;4.280;2022-12-18T07:26:41;17.27;;;8.90;;
23288;SDS011;11813;50.834;4.280;2022-12-18T07:29:07;18.23;;;10.07;;
23288;SDS011;11813;50.834;4.280;2022-12-18T07:31:33;19.97;;;10.27;;
23288;SDS011;11813;50.834;4.280;2022-12-18T07:33:58;19.17;;;10.73;;
23288;SDS011;11813;50.834;4.280;2022-12-18T07:36:24;18.13;;;9.87;;
23288;SDS011;11813;50.834;4.280;2022-12-18T07:38:49;16.47;;;9.33;;
23288;SDS011;11813;50.834;4.280;2022-12-18T07:41:17;15.03;;;9.10;;
23288;SDS011;11813;50.834;4.280;2022-12-18T07:43:43;18.57;;;10.37;;
23288;SDS011;11813;50.834;4.280;2022-12-18T07:46:09;19.50;;;9.87;;
23288;SDS011;11813;50.834;4.280;2022-12-18T07:48:38;17.80;;;10.20;;
23288;SDS011;11813;50.834;4.280;2022-12-18T07:51:05;19.23;;;9.67;;
23288;SDS011;11813;50.834;4.280;2022-12-18T07:53:32;14.90;;;9.60;;
23288;SDS011;11813;50.834;4.280;2022-12-18T07:56:00;15.40;;;9.20;;
23288;SDS011;11813;50.834;4.280;2022-12-18T07:58:28;21.67;;;10.40;;
23288;SDS011;11813;50.834;4.280;2022-12-18T08:00:54;17.10;;;10.60;;
23288;SDS011;11813;50.834;4.280;2022-12-18T08:03:26;19.50;;;9.63;;
23288;SDS011;11813;50.834;4.280;2022-12-18T08:05:52;17.63;;;9.20;;
23288;SDS011;11813;50.834;4.280;2022-12-18T08:08:17;16.47;;;9.47;;
23288;SDS011;11813;50.834;4.280;2022-12-18T08:10:43;16.60;;;9.53;;
23288;SDS011;11813;50.834;4.280;2022-12-18T08:13:08;18.77;;;9.67;;
23288;SDS011;11813;50.834;4.280;2022-12-18T08:15:34;19.73;;;9.53;;
23288;SDS011;11813;50.834;4.280;2022-12-18T08:17:59;15.33;;;9.13;;
23288;SDS011;11813;50.834;4.280;2022-12-18T08:20:25;19.10;;;10.23;;
23288;SDS011;11813;50.834;4.280;2022-12-18T08:22:50;17.77;;;9.47;;
23288;SDS011;11813;50.834;4.280;2022-12-18T08:25:16;16.63;;;9.90;;
23288;SDS011;11813;50.834;4.280;2022-12-18T08:27:41;20.60;;;10.50;;
23288;SDS011;11813;50.834;4.280;2022-12-18T08:30:07;17.90;;;10.67;;
23288;SDS011;11813;50.834;4.280;2022-12-18T08:32:33;17.47;;;10.23;;
23288;SDS011;11813;50.834;4.280;2022-12-18T08:34:59;20.67;;;11.17;;
23288;SDS011;11813;50.834;4.280;2022-12-18T08:37:25;17.73;;;10.53;;
23288;SDS011;11813;50.834;4.280;2022-12-18T08:39:50;20.83;;;10.83;;
23288;SDS011;11813;50.834;4.280;2022-12-18T08:42:16;18.13;;;10.13;;
23288;SDS011;11813;50.834;4.280;2022-12-18T08:45:20;20.00;;;10.93;;
23288;SDS011;11813;50.834;4.280;2022-12-18T08:47:46;19.77;;;11.07;;
23288;SDS011;11813;50.834;4.280;2022-12-18T08:50:11;17.77;;;10.93;;
23288;SDS011;11813;50.834;4.280;2022-12-18T08:52:37;19.50;;;10.90;;
23288;SDS011;11813;50.834;4.280;2022-12-18T08:55:03;20.47;;;11.90;;
23288;SDS011;11813;50.834;4.280;2022-12-18T08:57:29;19.93;;;12.10;;
23288;SDS011;11813;50.834;4.280;2022-12-18T08:59:54;22.43;;;12.63;;
23288;SDS011;11813;50.834;4.280;2022-12-18T09:02:20;17.60;;;11.53;;
23288;SDS011;11813;50.834;4.280;2022-12-18T09:04:48;20.87;;;12.03;;
23288;SDS011;11813;50.834;4.280;2022-12-18T09:07:14;19.73;;;12.23;;
23288;SDS011;11813;50.834;4.280;2022-12-18T09:09:39;20.47;;;11.23;;
23288;SDS011;11813;50.834;4.280;2022-12-18T09:12:05;23.53;;;12.93;;
23288;SDS011;11813;50.834;4.280;2022-12-18T09:14:31;17.53;;;10.80;;
23288;SDS011;11813;50.834;4.280;2022-12-18T09:16:56;22.13;;;11.50;;
23288;SDS011;11813;50.834;4.280;2022-12-18T09:19:22;21.73;;;12.13;;
23288;SDS011;11813;50.834;4.280;2022-12-18T09:21:47;19.33;;;11.63;;
23288;SDS011;11813;50.834;4.280;2022-12-18T09:24:13;22.67;;;11.77;;
23288;SDS011;11813;50.834;4.280;2022-12-18T09:26:40;18.87;;;11.67;;
23288;SDS011;11813;50.834;4.280;2022-12-18T09:29:05;22.70;;;12.20;;
23288;SDS011;11813;50.834;4.280;2022-12-18T09:31:32;19.00;;;11.53;;
23288;SDS011;11813;50.834;4.280;2022-12-18T09:33:58;18.90;;;11.27;;
23288;SDS011;11813;50.834;4.280;2022-12-18T09:36:24;16.33;;;11.00;;
23288;SDS011;11813;50.834;4.280;2022-12-18T09:38:49;19.00;;;11.37;;
23288;SDS011;11813;50.834;4.280;2022-12-18T09:43:42;21.70;;;11.87;;
23288;SDS011;11813;50.834;4.280;2022-12-18T09:46:18;19.57;;;11.37;;
23288;SDS011;11813;50.834;4.280;2022-12-18T09:48:51;21.30;;;12.30;;
23288;SDS011;11813;50.834;4.280;2022-12-18T09:51:22;23.43;;;12.27;;
23288;SDS011;11813;50.834;4.280;2022-12-18T09:53:55;17.97;;;11.90;;
23288;SDS011;11813;50.834;4.280;2022-12-18T09:56:31;20.70;;;12.00;;
23288;SDS011;11813;50.834;4.280;2022-12-18T09:59:03;18.60;;;11.60;;
23288;SDS011;11813;50.834;4.280;2022-12-18T10:01:29;23.73;;;12.33;;
23288;SDS011;11813;50.834;4.280;2022-12-18T10:03:56;21.23;;;12.23;;
23288;SDS011;11813;50.834;4.280;2022-12-18T10:06:28;21.87;;;12.30;;
23288;SDS011;11813;50.834;4.280;2022-12-18T10:14:57;23.73;;;12.23;;
23288;SDS011;11813;50.834;4.280;2022-12-18T10:28:15;22.33;;;12.53;;
23288;SDS011;11813;50.834;4.280;2022-12-18T10:30:43;25.17;;;13.43;;
23288;SDS011;11813;50.834;4.280;2022-12-18T10:33:19;25.77;;;12.37;;
23288;SDS011;11813;50.834;4.280;2022-12-18T10:35:47;23.77;;;13.23;;
23288;SDS011;11813;50.834;4.280;2022-12-18T10:43:47;22.63;;;12.27;;
23288;SDS011;11813;50.834;4.280;2022-12-18T10:46:16;20.40;;;11.93;;
23288;SDS011;11813;50.834;4.280;2022-12-18T10:53:50;23.17;;;14.00;;
23288;SDS011;11813;50.834;4.280;2022-12-18T10:56:37;23.73;;;13.07;;
23288;SDS011;11813;50.834;4.280;2022-12-18T10:59:04;19.90;;;11.70;;
23288;SDS011;11813;50.834;4.280;2022-12-18T11:01:48;22.63;;;12.37;;
23288;SDS011;11813;50.834;4.280;2022-12-18T11:07:07;20.23;;;12.93;;
23288;SDS011;11813;50.834;4.280;2022-12-18T11:09:36;21.13;;;12.20;;
23288;SDS011;11813;50.834;4.280;2022-12-18T11:12:23;25.80;;;13.07;;
23288;SDS011;11813;50.834;4.280;2022-12-18T11:14:49;20.40;;;12.47;;
23288;SDS011;11813;50.834;4.280;2022-12-18T11:17:21;23.73;;;13.00;;
23288;SDS011;11813;50.834;4.280;2022-12-18T11:19:54;26.40;;;13.87;;
23288;SDS011;11813;50.834;4.280;2022-12-18T11:22:29;23.50;;;13.80;;
23288;SDS011;11813;50.834;4.280;2022-12-18T11:24:57;27.90;;;15.53;;
23288;SDS011;11813;50.834;4.280;2022-12-18T11:27:26;22.77;;;13.20;;
23288;SDS011;11813;50.834;4.280;2022-12-18T11:30:06;23.03;;;12.30;;
23288;SDS011;11813;50.834;4.280;2022-12-18T11:35:43;25.73;;;11.93;;
23288;SDS011;11813;50.834;4.280;2022-12-18T11:38:31;20.20;;;11.37;;
23288;SDS011;11813;50.834;4.280;2022-12-18T11:43:32;21.00;;;11.90;;
23288;SDS011;11813;50.834;4.280;2022-12-18T11:46:24;18.40;;;10.50;;
23288;SDS011;11813;50.834;4.280;2022-12-18T11:49:08;21.30;;;11.60;;
23288;SDS011;11813;50.834;4.280;2022-12-18T11:51:48;21.00;;;11.80;;
23288;SDS011;11813;50.834;4.280;2022-12-18T11:54:18;16.97;;;10.73;;
23288;SDS011;11813;50.834;4.280;2022-12-18T11:59:48;25.97;;;11.77;;
23288;SDS011;11813;50.834;4.280;2022-12-18T12:04:48;20.63;;;11.43;;
23288;SDS011;11813;50.834;4.280;2022-12-18T12:07:25;22.03;;;11.53;;
23288;SDS011;11813;50.834;4.280;2022-12-18T12:15:20;27.87;;;14.23;;
23288;SDS011;11813;50.834;4.280;2022-12-18T12:17:55;24.40;;;13.87;;
23288;SDS011;11813;50.834;4.280;2022-12-18T12:20:44;33.17;;;18.63;;
23288;SDS011;11813;50.834;4.280;2022-12-18T12:34:08;23.60;;;13.00;;
23288;SDS011;11813;50.834;4.280;2022-12-18T12:36:45;22.83;;;12.17;;
23288;SDS011;11813;50.834;4.280;2022-12-18T12:39:36;29.13;;;13.40;;
23288;SDS011;11813;50.834;4.280;2022-12-18T12:42:05;25.03;;;13.27;;
23288;SDS011;11813;50.834;4.280;2022-12-18T12:44:55;22.97;;;12.43;;
23288;SDS011;11813;50.834;4.280;2022-12-18T12:47:27;27.03;;;13.73;;
23288;SDS011;11813;50.834;4.280;2022-12-18T12:50:11;25.60;;;12.57;;
23288;SDS011;11813;50.834;4.280;2022-12-18T12:52:45;30.67;;;13.63;;
23288;SDS011;11813;50.834;4.280;2022-12-18T12:55:17;28.60;;;14.37;;
23288;SDS011;11813;50.834;4.280;2022-12-18T12:57:48;27.93;;;15.07;;
23288;SDS011;11813;50.834;4.280;2022-12-18T13:00:19;27.40;;;14.23;;
23288;SDS011;11813;50.834;4.280;2022-12-18T13:02:51;28.87;;;15.07;;
23288;SDS011;11813;50.834;4.280;2022-12-18T13:05:46;27.97;;;15.27;;
23288;SDS011;11813;50.834;4.280;2022-12-18T13:08:24;34.17;;;14.40;;
23288;SDS011;11813;50.834;4.280;2022-12-18T13:11:28;31.07;;;15.87;;
23288;SDS011;11813;50.834;4.280;2022-12-18T13:14:23;26.97;;;14.20;;
23288;SDS011;11813;50.834;4.280;2022-12-18T13:19:44;32.03;;;14.67;;
23288;SDS011;11813;50.834;4.280;2022-12-18T13:22:35;28.47;;;14.93;;
23288;SDS011;11813;50.834;4.280;2022-12-18T13:25:03;31.07;;;15.30;;
23288;SDS011;11813;50.834;4.280;2022-12-18T13:28:15;30.53;;;16.30;;
23288;SDS011;11813;50.834;4.280;2022-12-18T13:36:45;29.37;;;15.40;;
23288;SDS011;11813;50.834;4.280;2022-12-18T13:41:41;30.50;;;15.67;;
23288;SDS011;11813;50.834;4.280;2022-12-18T13:44:11;31.63;;;17.27;;
23288;SDS011;11813;50.834;4.280;2022-12-18T13:46:50;30.50;;;16.40;;
23288;SDS011;11813;50.834;4.280;2022-12-18T13:49:20;34.00;;;17.47;;
23288;SDS011;11813;50.834;4.280;2022-12-18T13:51:48;29.83;;;16.83;;
23288;SDS011;11813;50.834;4.280;2022-12-18T13:54:28;32.37;;;17.57;;
23288;SDS011;11813;50.834;4.280;2022-12-18T13:57:02;31.67;;;16.23;;
23288;SDS011;11813;50.834;4.280;2022-12-18T13:59:34;35.73;;;17.40;;
23288;SDS011;11813;50.834;4.280;2022-12-18T14:02:07;33.37;;;17.00;;
23288;SDS011;11813;50.834;4.280;2022-12-18T14:04:37;34.10;;;17.33;;
23288;SDS011;11813;50.834;4.280;2022-12-18T14:09:36;34.37;;;17.57;;
23288;SDS011;11813;50.834;4.280;2022-12-18T14:12:04;29.63;;;16.00;;
23288;SDS011;11813;50.834;4.280;2022-12-18T14:14:49;36.60;;;18.13;;
23288;SDS011;11813;50.834;4.280;2022-12-18T14:17:17;36.33;;;18.23;;
23288;SDS011;11813;50.834;4.280;2022-12-18T14:19:44;37.90;;;18.03;;
23288;SDS011;11813;50.834;4.280;2022-12-18T14:22:16;39.43;;;18.13;;
23288;SDS011;11813;50.834;4.280;2022-12-18T14:24:46;32.50;;;17.33;;
23288;SDS011;11813;50.834;4.280;2022-12-18T14:27:19;33.30;;;17.07;;
23288;SDS011;11813;50.834;4.280;2022-12-18T14:29:47;37.47;;;18.50;;
23288;SDS011;11813;50.834;4.280;2022-12-18T14:32:14;41.50;;;18.43;;
23288;SDS011;11813;50.834;4.280;2022-12-18T14:34:43;35.10;;;17.47;;
23288;SDS011;11813;50.834;4.280;2022-12-18T14:37:10;34.83;;;18.23;;
23288;SDS011;11813;50.834;4.280;2022-12-18T14:39:38;36.73;;;17.83;;
23288;SDS011;11813;50.834;4.280;2022-12-18T14:42:03;38.50;;;18.63;;
23288;SDS011;11813;50.834;4.280;2022-12-18T14:44:29;34.87;;;18.80;;
23288;SDS011;11813;50.834;4.280;2022-12-18T14:46:55;34.60;;;18.17;;
23288;SDS011;11813;50.834;4.280;2022-12-18T14:49:39;38.10;;;18.43;;
23288;SDS011;11813;50.834;4.280;2022-12-18T14:52:16;36.13;;;18.10;;
23288;SDS011;11813;50.834;4.280;2022-12-18T14:54:51;36.70;;;17.83;;
23288;SDS011;11813;50.834;4.280;2022-12-18T14:57:32;35.03;;;17.77;;
23288;SDS011;11813;50.834;4.280;2022-12-18T15:00:06;42.57;;;17.90;;
23288;SDS011;11813;50.834;4.280;2022-12-18T15:02:40;38.20;;;17.67;;
23288;SDS011;11813;50.834;4.280;2022-12-18T15:10:18;33.93;;;17.33;;
23288;SDS011;11813;50.834;4.280;2022-12-18T15:18:01;28.73;;;14.40;;
23288;SDS011;11813;50.834;4.280;2022-12-18T15:20:31;35.97;;;17.37;;
23288;SDS011;11813;50.834;4.280;2022-12-18T15:23:04;38.23;;;18.60;;
23288;SDS011;11813;50.834;4.280;2022-12-18T15:25:36;34.97;;;18.87;;
23288;SDS011;11813;50.834;4.280;2022-12-18T15:28:03;36.13;;;17.57;;
23288;SDS011;11813;50.834;4.280;2022-12-18T15:30:40;38.57;;;17.87;;
23288;SDS011;11813;50.834;4.280;2022-12-18T15:33:43;41.70;;;16.77;;
23288;SDS011;11813;50.834;4.280;2022-12-18T15:36:14;34.23;;;17.03;;
23288;SDS011;11813;50.834;4.280;2022-12-18T15:38:41;39.73;;;18.40;;
23288;SDS011;11813;50.834;4.280;2022-12-18T15:41:13;38.90;;;18.37;;
23288;SDS011;11813;50.834;4.280;2022-12-18T15:43:40;35.10;;;18.20;;
23288;SDS011;11813;50.834;4.280;2022-12-18T15:46:11;38.37;;;19.03;;
23288;SDS011;11813;50.834;4.280;2022-12-18T15:48:48;34.40;;;17.80;;
23288;SDS011;11813;50.834;4.280;2022-12-18T15:51:17;37.67;;;18.17;;
23288;SDS011;11813;50.834;4.280;2022-12-18T15:53:48;36.63;;;18.00;;
23288;SDS011;11813;50.834;4.280;2022-12-18T15:56:16;35.27;;;16.57;;
23288;SDS011;11813;50.834;4.280;2022-12-18T15:59:01;35.13;;;17.70;;
23288;SDS011;11813;50.834;4.280;2022-12-18T16:01:28;36.20;;;18.77;;
23288;SDS011;11813;50.834;4.280;2022-12-18T16:03:55;38.17;;;17.80;;
23288;SDS011;11813;50.834;4.280;2022-12-18T16:06:23;36.77;;;18.10;;
23288;SDS011;11813;50.834;4.280;2022-12-18T16:08:49;35.97;;;17.87;;
23288;SDS011;11813;50.834;4.280;2022-12-18T16:11:25;36.17;;;17.33;;
23288;SDS011;11813;50.834;4.280;2022-12-18T16:14:19;29.83;;;15.53;;
23288;SDS011;11813;50.834;4.280;2022-12-18T16:16:51;37.23;;;17.37;;
23288;SDS011;11813;50.834;4.280;2022-12-18T16:19:19;33.47;;;17.20;;
23288;SDS011;11813;50.834;4.280;2022-12-18T16:21:46;35.30;;;17.90;;
23288;SDS011;11813;50.834;4.280;2022-12-18T16:24:17;37.87;;;18.10;;
23288;SDS011;11813;50.834;4.280;2022-12-18T16:26:47;33.87;;;17.73;;